sensor_id;sensor_type;location;lat;lon;timestamp;pressure;altitude;pressure_sealevel;temperature;humidity
37291;BME280;23175;-33.706;151.094;2023-12-29T04:19:07;99361.03;;;19.20;58.11
37291;BME280;23175;-33.706;151.094;2023-12-29T04:21:36;99356.80;;;22.29;53.05
37291;BME280;23175;-33.706;151.094;2023-12-29T04:24:06;99355.01;;;21.66;55.16
37291;BME280;23175;-33.706;151.094;2023-12-29T04:26:37;99347.09;;;22.72;52.47
37291;BME280;23175;-33.706;151.094;2023-12-29T04:29:08;99343.38;;;21.81;53.03
37291;BME280;23175;-33.706;151.094;2023-12-29T04:31:38;99347.32;;;22.41;52.21
37291;BME280;23175;-33.706;151.094;2023-12-29T04:34:08;99347.57;;;22.88;50.50
37291;BME280;23175;-33.706;151.094;2023-12-29T04:36:38;99342.72;;;24.46;48.64
37291;BME280;23175;-33.706;151.094;2023-12-29T04:39:08;99345.31;;;21.08;53.65
37291;BME280;23175;-33.706;151.094;2023-12-29T04:41:39;99348.99;;;20.20;56.85
37291;BME280;23175;-33.706;151.094;2023-12-29T04:44:09;99340.71;;;21.28;55.29
37291;BME280;23175;-33.706;151.094;2023-12-29T04:46:39;99321.04;;;22.18;53.81
37291;BME280;23175;-33.706;151.094;2023-12-29T04:49:09;99309.06;;;22.35;52.40
37291;BME280;23175;-33.706;151.094;2023-12-29T04:51:39;99306.81;;;22.55;51.62
37291;BME280;23175;-33.706;151.094;2023-12-29T04:54:09;99307.54;;;20.74;54.82
37291;BME280;23175;-33.706;151.094;2023-12-29T04:56:40;99313.33;;;19.76;57.12
37291;BME280;23175;-33.706;151.094;2023-12-29T04:59:10;99321.63;;;21.97;54.26
37291;BME280;23175;-33.706;151.094;2023-12-29T05:01:40;99307.22;;;22.49;52.58
37291;BME280;23175;-33.706;151.094;2023-12-29T05:04:10;99299.35;;;18.61;59.32
37291;BME280;23175;-33.706;151.094;2023-12-29T05:06:40;99296.44;;;18.55;61.42
37291;BME280;23175;-33.706;151.094;2023-12-29T05:09:11;99280.31;;;21.27;58.24
37291;BME280;23175;-33.706;151.094;2023-12-29T05:11:41;99276.29;;;19.13;62.66
37291;BME280;23175;-33.706;151.094;2023-12-29T05:14:11;99267.50;;;20.66;62.52
37291;BME280;23175;-33.706;151.094;2023-12-29T05:16:41;99270.98;;;21.93;59.54
37291;BME280;23175;-33.706;151.094;2023-12-29T05:19:13;99279.16;;;17.68;67.91
37291;BME280;23175;-33.706;151.094;2023-12-29T05:21:43;99261.31;;;17.66;74.72
37291;BME280;23175;-33.706;151.094;2023-12-29T05:24:13;99283.47;;;20.00;68.01
37291;BME280;23175;-33.706;151.094;2023-12-29T05:26:43;99288.42;;;21.20;63.10
37291;BME280;23175;-33.706;151.094;2023-12-29T05:29:14;99277.32;;;20.03;66.19
37291;BME280;23175;-33.706;151.094;2023-12-29T05:31:43;99285.42;;;22.78;59.33
37291;BME280;23175;-33.706;151.094;2023-12-29T05:34:14;99292.15;;;20.63;64.23
37291;BME280;23175;-33.706;151.094;2023-12-29T05:36:44;99295.79;;;20.14;64.81
37291;BME280;23175;-33.706;151.094;2023-12-29T05:39:14;99301.96;;;19.22;67.25
37291;BME280;23175;-33.706;151.094;2023-12-29T05:41:44;99304.92;;;19.98;65.15
37291;BME280;23175;-33.706;151.094;2023-12-29T05:44:15;99303.72;;;21.42;61.99
37291;BME280;23175;-33.706;151.094;2023-12-29T05:46:48;99304.74;;;21.04;62.99
37291;BME280;23175;-33.706;151.094;2023-12-29T05:49:18;99294.59;;;22.17;59.45
37291;BME280;23175;-33.706;151.094;2023-12-29T05:51:48;99300.78;;;22.13;60.49
37291;BME280;23175;-33.706;151.094;2023-12-29T05:54:18;99296.91;;;22.90;57.73
37291;BME280;23175;-33.706;151.094;2023-12-29T05:56:48;99295.58;;;23.25;57.43
37291;BME280;23175;-33.706;151.094;2023-12-29T05:59:24;99289.39;;;22.25;58.92
37291;BME280;23175;-33.706;151.094;2023-12-29T06:01:54;99276.14;;;19.18;63.72
37291;BME280;23175;-33.706;151.094;2023-12-29T06:04:24;99270.26;;;22.69;59.12
37291;BME280;23175;-33.706;151.094;2023-12-29T06:06:54;99261.83;;;22.59;57.95
37291;BME280;23175;-33.706;151.094;2023-12-29T06:09:25;99257.59;;;21.42;61.28
37291;BME280;23175;-33.706;151.094;2023-12-29T06:12:01;99245.04;;;19.31;65.11
37291;BME280;23175;-33.706;151.094;2023-12-29T06:14:38;99255.21;;;21.82;59.88
37291;BME280;23175;-33.706;151.094;2023-12-29T06:17:08;99259.22;;;23.96;55.21
37291;BME280;23175;-33.706;151.094;2023-12-29T06:19:41;99255.98;;;17.79;69.18
37291;BME280;23175;-33.706;151.094;2023-12-29T06:22:11;99240.32;;;18.21;67.41
37291;BME280;23175;-33.706;151.094;2023-12-29T06:24:41;99240.62;;;16.88;72.60
37291;BME280;23175;-33.706;151.094;2023-12-29T06:27:15;99245.90;;;17.37;71.39
37291;BME280;23175;-33.706;151.094;2023-12-29T06:29:45;99255.87;;;18.43;69.82
37291;BME280;23175;-33.706;151.094;2023-12-29T06:32:15;99262.72;;;21.71;62.19
37291;BME280;23175;-33.706;151.094;2023-12-29T06:34:45;99263.02;;;20.38;65.23
37291;BME280;23175;-33.706;151.094;2023-12-29T06:37:17;99257.68;;;20.10;65.01
37291;BME280;23175;-33.706;151.094;2023-12-29T06:39:47;99253.90;;;19.77;66.89
37291;BME280;23175;-33.706;151.094;2023-12-29T06:42:17;99275.29;;;23.40;58.17
37291;BME280;23175;-33.706;151.094;2023-12-29T06:44:47;99291.04;;;22.71;58.63
37291;BME280;23175;-33.706;151.094;2023-12-29T06:47:17;99276.49;;;22.50;59.47
37291;BME280;23175;-33.706;151.094;2023-12-29T06:49:47;99267.26;;;23.30;57.73
37291;BME280;23175;-33.706;151.094;2023-12-29T06:52:17;99260.28;;;23.76;56.15
37291;BME280;23175;-33.706;151.094;2023-12-29T06:54:49;99263.26;;;24.69;55.28
37291;BME280;23175;-33.706;151.094;2023-12-29T06:57:19;99263.55;;;25.12;53.27
37291;BME280;23175;-33.706;151.094;2023-12-29T06:59:49;99259.34;;;20.91;61.70
37291;BME280;23175;-33.706;151.094;2023-12-29T07:02:19;99258.82;;;24.64;55.78
37291;BME280;23175;-33.706;151.094;2023-12-29T07:04:50;99246.98;;;20.86;61.67
37291;BME280;23175;-33.706;151.094;2023-12-29T07:07:20;99244.07;;;20.44;60.61
37291;BME280;23175;-33.706;151.094;2023-12-29T07:09:50;99247.45;;;21.26;57.69
37291;BME280;23175;-33.706;151.094;2023-12-29T07:12:21;99249.44;;;22.10;55.55
37291;BME280;23175;-33.706;151.094;2023-12-29T07:14:51;99250.47;;;23.66;52.54
37291;BME280;23175;-33.706;151.094;2023-12-29T07:17:21;99253.32;;;23.95;52.12
37291;BME280;23175;-33.706;151.094;2023-12-29T07:19:53;99269.34;;;25.00;49.99
37291;BME280;23175;-33.706;151.094;2023-12-29T07:22:23;99266.95;;;24.37;51.81
37291;BME280;23175;-33.706;151.094;2023-12-29T07:24:53;99266.46;;;24.83;50.37
37291;BME280;23175;-33.706;151.094;2023-12-29T07:27:23;99256.83;;;25.16;51.17
37291;BME280;23175;-33.706;151.094;2023-12-29T07:29:53;99256.49;;;23.88;53.47
37291;BME280;23175;-33.706;151.094;2023-12-29T07:32:23;99264.12;;;22.22;57.46
37291;BME280;23175;-33.706;151.094;2023-12-29T07:34:54;99271.94;;;24.66;51.12
37291;BME280;23175;-33.706;151.094;2023-12-29T07:37:24;99278.97;;;24.83;51.15
37291;BME280;23175;-33.706;151.094;2023-12-29T07:39:54;99276.47;;;23.70;52.41
37291;BME280;23175;-33.706;151.094;2023-12-29T07:42:24;99276.14;;;22.86;55.75
37291;BME280;23175;-33.706;151.094;2023-12-29T07:44:55;99273.80;;;22.46;56.82
37291;BME280;23175;-33.706;151.094;2023-12-29T07:47:25;99267.53;;;24.07;52.59
37291;BME280;23175;-33.706;151.094;2023-12-29T07:49:55;99258.74;;;23.26;54.19
37291;BME280;23175;-33.706;151.094;2023-12-29T07:52:25;99259.77;;;24.86;51.31
37291;BME280;23175;-33.706;151.094;2023-12-29T07:54:56;99264.85;;;24.89;50.61
37291;BME280;23175;-33.706;151.094;2023-12-29T07:57:26;99266.18;;;24.97;49.89
37291;BME280;23175;-33.706;151.094;2023-12-29T07:59:56;99271.16;;;24.47;51.03
37291;BME280;23175;-33.706;151.094;2023-12-29T08:02:26;99268.97;;;21.72;55.60
37291;BME280;23175;-33.706;151.094;2023-12-29T08:04:58;99274.32;;;24.36;51.63
37291;BME280;23175;-33.706;151.094;2023-12-29T08:07:28;99272.29;;;24.86;50.36
37291;BME280;23175;-33.706;151.094;2023-12-29T08:09:58;99270.92;;;23.70;51.00
37291;BME280;23175;-33.706;151.094;2023-12-29T08:12:28;99269.56;;;23.21;53.45
37291;BME280;23175;-33.706;151.094;2023-12-29T08:14:58;99267.44;;;24.66;51.10
37291;BME280;23175;-33.706;151.094;2023-12-29T08:17:29;99272.15;;;24.10;51.49
37291;BME280;23175;-33.706;151.094;2023-12-29T08:19:59;99269.11;;;24.92;50.32
37291;BME280;23175;-33.706;151.094;2023-12-29T08:22:31;99267.94;;;24.48;50.57
37291;BME280;23175;-33.706;151.094;2023-12-29T08:25:01;99261.59;;;20.35;58.32
37291;BME280;23175;-33.706;151.094;2023-12-29T08:27:32;99267.69;;;23.31;52.14
37291;BME280;23175;-33.706;151.094;2023-12-29T08:30:02;99263.92;;;24.26;51.60
37291;BME280;23175;-33.706;151.094;2023-12-29T08:32:32;99255.24;;;21.34;56.68
37291;BME280;23175;-33.706;151.094;2023-12-29T08:35:03;99253.97;;;23.73;52.33
37291;BME280;23175;-33.706;151.094;2023-12-29T08:37:34;99249.20;;;24.10;50.40
37291;BME280;23175;-33.706;151.094;2023-12-29T08:40:05;99249.05;;;22.24;53.36
37291;BME280;23175;-33.706;151.094;2023-12-29T08:42:35;99254.30;;;23.61;51.62
37291;BME280;23175;-33.706;151.094;2023-12-29T08:45:06;99245.95;;;20.39;56.54
37291;BME280;23175;-33.706;151.094;2023-12-29T08:47:36;99246.05;;;22.25;54.05
37291;BME280;23175;-33.706;151.094;2023-12-29T08:50:07;99241.93;;;22.03;52.31
37291;BME280;23175;-33.706;151.094;2023-12-29T08:52:43;99237.50;;;20.99;55.66
37291;BME280;23175;-33.706;151.094;2023-12-29T08:55:15;99239.81;;;20.64;56.30
37291;BME280;23175;-33.706;151.094;2023-12-29T08:57:45;99244.97;;;23.24;49.08
37291;BME280;23175;-33.706;151.094;2023-12-29T09:00:17;99239.64;;;18.45;57.62
37291;BME280;23175;-33.706;151.094;2023-12-29T09:02:46;99229.91;;;21.93;54.38
37291;BME280;23175;-33.706;151.094;2023-12-29T09:05:16;99219.63;;;22.91;51.01
37291;BME280;23175;-33.706;151.094;2023-12-29T09:07:47;99218.92;;;22.64;52.43
37291;BME280;23175;-33.706;151.094;2023-12-29T09:10:17;99222.85;;;22.43;51.90
37291;BME280;23175;-33.706;151.094;2023-12-29T09:12:47;99218.81;;;21.58;54.29
37291;BME280;23175;-33.706;151.094;2023-12-29T09:15:20;99213.36;;;21.31;53.16
37291;BME280;23175;-33.706;151.094;2023-12-29T09:17:50;99212.53;;;19.58;57.53
37291;BME280;23175;-33.706;151.094;2023-12-29T09:20:21;99213.67;;;19.63;56.85
37291;BME280;23175;-33.706;151.094;2023-12-29T09:22:52;99218.10;;;20.52;54.13
37291;BME280;23175;-33.706;151.094;2023-12-29T09:25:22;99224.02;;;20.95;54.58
37291;BME280;23175;-33.706;151.094;2023-12-29T09:27:53;99228.20;;;20.71;54.87
37291;BME280;23175;-33.706;151.094;2023-12-29T09:30:24;99230.89;;;19.79;57.18
37291;BME280;23175;-33.706;151.094;2023-12-29T09:32:55;99229.67;;;21.45;54.46
37291;BME280;23175;-33.706;151.094;2023-12-29T09:35:25;99229.46;;;19.45;56.27
37291;BME280;23175;-33.706;151.094;2023-12-29T09:37:57;99227.62;;;19.48;53.28
37291;BME280;23175;-33.706;151.094;2023-12-29T09:40:27;99229.59;;;18.83;55.17
37291;BME280;23175;-33.706;151.094;2023-12-29T09:42:58;99226.43;;;18.23;53.53
37291;BME280;23175;-33.706;151.094;2023-12-29T09:45:30;99221.11;;;20.77;48.26
37291;BME280;23175;-33.706;151.094;2023-12-29T09:48:02;99225.28;;;18.27;51.84
37291;BME280;23175;-33.706;151.094;2023-12-29T09:50:32;99226.65;;;19.52;48.98
37291;BME280;23175;-33.706;151.094;2023-12-29T09:53:05;99229.76;;;18.69;51.18
37291;BME280;23175;-33.706;151.094;2023-12-29T09:55:35;99230.22;;;20.58;46.21
37291;BME280;23175;-33.706;151.094;2023-12-29T09:58:06;99225.73;;;19.71;47.92
37291;BME280;23175;-33.706;151.094;2023-12-29T10:00:38;99223.39;;;22.00;45.35
37291;BME280;23175;-33.706;151.094;2023-12-29T10:03:10;99227.19;;;15.52;54.70
37291;BME280;23175;-33.706;151.094;2023-12-29T10:05:40;99223.65;;;21.52;41.74
37291;BME280;23175;-33.706;151.094;2023-12-29T10:08:11;99217.18;;;18.75;47.38
37291;BME280;23175;-33.706;151.094;2023-12-29T10:10:43;99210.49;;;18.14;51.13
37291;BME280;23175;-33.706;151.094;2023-12-29T10:13:15;99216.34;;;17.86;48.36
37291;BME280;23175;-33.706;151.094;2023-12-29T10:15:53;99217.24;;;21.26;42.70
37291;BME280;23175;-33.706;151.094;2023-12-29T10:18:37;99226.89;;;18.57;46.07
37291;BME280;23175;-33.706;151.094;2023-12-29T10:21:16;99231.34;;;16.86;47.81
37291;BME280;23175;-33.706;151.094;2023-12-29T10:23:53;99230.93;;;18.74;45.89
37291;BME280;23175;-33.706;151.094;2023-12-29T10:26:25;99221.40;;;20.11;43.75
37291;BME280;23175;-33.706;151.094;2023-12-29T10:28:56;99228.88;;;17.75;45.12
37291;BME280;23175;-33.706;151.094;2023-12-29T10:31:27;99219.03;;;19.69;41.59
37291;BME280;23175;-33.706;151.094;2023-12-29T10:34:19;99222.87;;;19.19;43.93
37291;BME280;23175;-33.706;151.094;2023-12-29T10:36:50;99225.66;;;20.04;42.39
37291;BME280;23175;-33.706;151.094;2023-12-29T10:39:23;99230.00;;;18.53;43.88
37291;BME280;23175;-33.706;151.094;2023-12-29T10:42:04;99226.44;;;18.49;44.49
37291;BME280;23175;-33.706;151.094;2023-12-29T10:44:35;99227.63;;;18.86;41.86
37291;BME280;23175;-33.706;151.094;2023-12-29T10:47:14;99222.37;;;18.64;43.25
37291;BME280;23175;-33.706;151.094;2023-12-29T10:49:44;99214.61;;;18.77;42.64
37291;BME280;23175;-33.706;151.094;2023-12-29T10:52:15;99212.47;;;19.30;43.04
37291;BME280;23175;-33.706;151.094;2023-12-29T10:54:45;99201.33;;;20.05;40.75
37291;BME280;23175;-33.706;151.094;2023-12-29T10:57:15;99192.00;;;18.07;43.43
37291;BME280;23175;-33.706;151.094;2023-12-29T10:59:57;99198.64;;;19.00;41.03
37291;BME280;23175;-33.706;151.094;2023-12-29T11:02:27;99199.45;;;19.74;39.79
37291;BME280;23175;-33.706;151.094;2023-12-29T11:05:09;99205.74;;;20.18;40.33
37291;BME280;23175;-33.706;151.094;2023-12-29T11:07:41;99203.58;;;20.20;39.42
37291;BME280;23175;-33.706;151.094;2023-12-29T11:10:11;99207.50;;;17.73;41.45
37291;BME280;23175;-33.706;151.094;2023-12-29T11:12:42;99206.74;;;18.13;41.16
37291;BME280;23175;-33.706;151.094;2023-12-29T11:15:15;99198.96;;;18.39;41.81
37291;BME280;23175;-33.706;151.094;2023-12-29T11:17:45;99197.84;;;18.54;39.89
37291;BME280;23175;-33.706;151.094;2023-12-29T11:20:19;99197.86;;;19.41;39.05
37291;BME280;23175;-33.706;151.094;2023-12-29T11:22:50;99201.78;;;18.50;38.41
37291;BME280;23175;-33.706;151.094;2023-12-29T11:25:21;99211.83;;;19.22;39.63
37291;BME280;23175;-33.706;151.094;2023-12-29T11:27:53;99216.83;;;19.97;38.88
37291;BME280;23175;-33.706;151.094;2023-12-29T11:30:24;99218.83;;;20.73;37.37
37291;BME280;23175;-33.706;151.094;2023-12-29T11:33:01;99227.47;;;19.85;37.99
37291;BME280;23175;-33.706;151.094;2023-12-29T11:35:37;99241.62;;;18.27;41.00
37291;BME280;23175;-33.706;151.094;2023-12-29T11:38:26;99247.42;;;18.50;40.47
37291;BME280;23175;-33.706;151.094;2023-12-29T11:41:05;99240.02;;;18.96;39.06
37291;BME280;23175;-33.706;151.094;2023-12-29T11:43:38;99230.74;;;19.24;40.72
37291;BME280;23175;-33.706;151.094;2023-12-29T11:46:08;99230.65;;;19.19;38.75
37291;BME280;23175;-33.706;151.094;2023-12-29T11:49:01;99224.70;;;19.31;38.48
37291;BME280;23175;-33.706;151.094;2023-12-29T11:51:33;99230.96;;;17.62;41.02
37291;BME280;23175;-33.706;151.094;2023-12-29T11:54:05;99239.81;;;18.97;38.23
37291;BME280;23175;-33.706;151.094;2023-12-29T11:56:38;99238.06;;;18.93;38.29
37291;BME280;23175;-33.706;151.094;2023-12-29T11:59:17;99240.59;;;18.84;38.14
37291;BME280;23175;-33.706;151.094;2023-12-29T12:01:50;99243.25;;;18.66;38.35
37291;BME280;23175;-33.706;151.094;2023-12-29T12:04:40;99241.44;;;18.65;38.42
37291;BME280;23175;-33.706;151.094;2023-12-29T12:07:16;99230.91;;;17.85;39.06
37291;BME280;23175;-33.706;151.094;2023-12-29T12:09:47;99220.79;;;18.35;38.57
37291;BME280;23175;-33.706;151.094;2023-12-29T12:12:41;99225.24;;;18.40;40.02
37291;BME280;23175;-33.706;151.094;2023-12-29T12:15:33;99219.17;;;17.55;40.89
37291;BME280;23175;-33.706;151.094;2023-12-29T12:18:05;99224.95;;;18.28;39.10
37291;BME280;23175;-33.706;151.094;2023-12-29T12:20:35;99232.64;;;18.29;38.08
37291;BME280;23175;-33.706;151.094;2023-12-29T12:23:16;99231.32;;;17.19;39.43
37291;BME280;23175;-33.706;151.094;2023-12-29T12:25:47;99228.71;;;17.18;39.54
37291;BME280;23175;-33.706;151.094;2023-12-29T12:28:20;99217.89;;;17.29;40.00
37291;BME280;23175;-33.706;151.094;2023-12-29T12:30:50;99215.46;;;17.69;38.72
37291;BME280;23175;-33.706;151.094;2023-12-29T12:33:21;99199.39;;;19.65;37.31
37291;BME280;23175;-33.706;151.094;2023-12-29T12:36:01;99199.93;;;18.50;39.88
37291;BME280;23175;-33.706;151.094;2023-12-29T12:38:31;99200.40;;;18.36;38.61
37291;BME280;23175;-33.706;151.094;2023-12-29T12:41:13;99202.70;;;18.52;39.11
37291;BME280;23175;-33.706;151.094;2023-12-29T12:43:53;99206.72;;;19.68;37.64
37291;BME280;23175;-33.706;151.094;2023-12-29T12:46:27;99198.40;;;19.14;37.17
37291;BME280;23175;-33.706;151.094;2023-12-29T12:49:01;99195.82;;;18.99;37.80
37291;BME280;23175;-33.706;151.094;2023-12-29T12:51:32;99192.91;;;20.86;36.30
37291;BME280;23175;-33.706;151.094;2023-12-29T12:54:04;99196.61;;;19.89;38.05
37291;BME280;23175;-33.706;151.094;2023-12-29T12:56:36;99191.07;;;18.66;39.46
37291;BME280;23175;-33.706;151.094;2023-12-29T12:59:06;99191.83;;;20.77;37.24
37291;BME280;23175;-33.706;151.094;2023-12-29T13:01:38;99185.65;;;18.89;39.90
37291;BME280;23175;-33.706;151.094;2023-12-29T13:04:08;99181.26;;;17.06;43.09
37291;BME280;23175;-33.706;151.094;2023-12-29T13:06:43;99169.35;;;17.69;41.02
37291;BME280;23175;-33.706;151.094;2023-12-29T13:09:14;99168.31;;;21.01;36.07
37291;BME280;23175;-33.706;151.094;2023-12-29T13:11:45;99163.41;;;19.06;39.90
37291;BME280;23175;-33.706;151.094;2023-12-29T13:14:22;99164.56;;;19.32;41.28
37291;BME280;23175;-33.706;151.094;2023-12-29T13:16:52;99164.70;;;17.73;43.18
37291;BME280;23175;-33.706;151.094;2023-12-29T13:19:24;99160.15;;;17.15;43.78
37291;BME280;23175;-33.706;151.094;2023-12-29T13:21:57;99162.00;;;21.54;37.85
37291;BME280;23175;-33.706;151.094;2023-12-29T13:24:29;99162.32;;;19.89;39.72
37291;BME280;23175;-33.706;151.094;2023-12-29T13:27:05;99153.73;;;20.57;40.19
37291;BME280;23175;-33.706;151.094;2023-12-29T13:29:37;99149.80;;;19.84;40.24
37291;BME280;23175;-33.706;151.094;2023-12-29T13:32:13;99145.39;;;19.00;40.69
37291;BME280;23175;-33.706;151.094;2023-12-29T13:34:53;99149.24;;;16.78;42.25
37291;BME280;23175;-33.706;151.094;2023-12-29T13:37:31;99153.66;;;19.26;41.09
37291;BME280;23175;-33.706;151.094;2023-12-29T13:40:13;99156.92;;;21.72;38.43
37291;BME280;23175;-33.706;151.094;2023-12-29T13:42:47;99155.57;;;22.11;38.09
37291;BME280;23175;-33.706;151.094;2023-12-29T13:45:19;99150.46;;;22.06;37.99
37291;BME280;23175;-33.706;151.094;2023-12-29T13:47:50;99143.96;;;21.31;38.44
37291;BME280;23175;-33.706;151.094;2023-12-29T13:50:21;99143.11;;;21.27;39.13
37291;BME280;23175;-33.706;151.094;2023-12-29T13:52:51;99141.43;;;21.73;39.20
37291;BME280;23175;-33.706;151.094;2023-12-29T13:55:25;99142.22;;;21.95;38.64
37291;BME280;23175;-33.706;151.094;2023-12-29T13:57:58;99145.72;;;21.76;39.33
37291;BME280;23175;-33.706;151.094;2023-12-29T14:00:30;99142.47;;;21.29;40.07
37291;BME280;23175;-33.706;151.094;2023-12-29T14:03:06;99140.89;;;21.95;39.03
37291;BME280;23175;-33.706;151.094;2023-12-29T14:05:52;99138.39;;;22.24;38.37
37291;BME280;23175;-33.706;151.094;2023-12-29T14:08:31;99140.84;;;22.93;37.09
37291;BME280;23175;-33.706;151.094;2023-12-29T14:11:08;99141.39;;;21.98;38.66
37291;BME280;23175;-33.706;151.094;2023-12-29T14:13:44;99131.75;;;22.07;38.66
37291;BME280;23175;-33.706;151.094;2023-12-29T14:16:15;99127.00;;;22.10;38.95
37291;BME280;23175;-33.706;151.094;2023-12-29T14:18:58;99123.95;;;22.23;38.91
37291;BME280;23175;-33.706;151.094;2023-12-29T14:21:30;99122.32;;;23.11;36.49
37291;BME280;23175;-33.706;151.094;2023-12-29T14:24:18;99122.95;;;23.02;38.58
37291;BME280;23175;-33.706;151.094;2023-12-29T14:26:59;99114.72;;;22.88;38.08
37291;BME280;23175;-33.706;151.094;2023-12-29T14:29:29;99106.51;;;22.96;38.57
37291;BME280;23175;-33.706;151.094;2023-12-29T14:32:11;99103.42;;;22.19;37.92
37291;BME280;23175;-33.706;151.094;2023-12-29T14:34:41;99102.15;;;22.16;38.18
37291;BME280;23175;-33.706;151.094;2023-12-29T14:37:13;99102.25;;;22.80;37.80
37291;BME280;23175;-33.706;151.094;2023-12-29T14:39:49;99110.02;;;22.72;38.08
37291;BME280;23175;-33.706;151.094;2023-12-29T14:42:19;99116.66;;;22.32;37.62
37291;BME280;23175;-33.706;151.094;2023-12-29T14:44:51;99113.02;;;22.37;38.48
37291;BME280;23175;-33.706;151.094;2023-12-29T14:47:21;99109.37;;;22.25;38.65
37291;BME280;23175;-33.706;151.094;2023-12-29T14:49:52;99105.16;;;22.27;38.23
37291;BME280;23175;-33.706;151.094;2023-12-29T14:52:28;99109.71;;;22.92;38.33
37291;BME280;23175;-33.706;151.094;2023-12-29T14:55:00;99119.36;;;22.28;39.03
37291;BME280;23175;-33.706;151.094;2023-12-29T14:57:32;99119.62;;;22.05;39.30
37291;BME280;23175;-33.706;151.094;2023-12-29T15:00:02;99114.43;;;22.14;39.75
37291;BME280;23175;-33.706;151.094;2023-12-29T15:02:33;99110.72;;;21.72;40.04
37291;BME280;23175;-33.706;151.094;2023-12-29T15:05:04;99107.41;;;22.13;39.37
37291;BME280;23175;-33.706;151.094;2023-12-29T15:07:35;99107.93;;;22.27;39.79
37291;BME280;23175;-33.706;151.094;2023-12-29T15:10:06;99112.27;;;21.85;40.03
37291;BME280;23175;-33.706;151.094;2023-12-29T15:12:36;99114.10;;;20.23;41.84
37291;BME280;23175;-33.706;151.094;2023-12-29T15:15:07;99112.40;;;21.45;40.52
37291;BME280;23175;-33.706;151.094;2023-12-29T15:17:39;99115.00;;;21.76;39.86
37291;BME280;23175;-33.706;151.094;2023-12-29T15:20:10;99112.83;;;21.46;40.75
37291;BME280;23175;-33.706;151.094;2023-12-29T15:22:40;99119.65;;;21.57;39.93
37291;BME280;23175;-33.706;151.094;2023-12-29T15:25:11;99120.65;;;21.75;39.88
37291;BME280;23175;-33.706;151.094;2023-12-29T15:27:44;99120.27;;;21.43;40.23
37291;BME280;23175;-33.706;151.094;2023-12-29T15:30:16;99126.08;;;21.74;39.95
37291;BME280;23175;-33.706;151.094;2023-12-29T15:32:47;99119.32;;;21.91;40.02
37291;BME280;23175;-33.706;151.094;2023-12-29T15:35:19;99106.21;;;21.54;40.03
37291;BME280;23175;-33.706;151.094;2023-12-29T15:37:49;99098.07;;;18.90;43.40
37291;BME280;23175;-33.706;151.094;2023-12-29T15:40:20;99104.94;;;20.67;41.79
37291;BME280;23175;-33.706;151.094;2023-12-29T15:42:52;99114.59;;;21.19;40.88
37291;BME280;23175;-33.706;151.094;2023-12-29T15:45:22;99119.87;;;21.21;40.86
37291;BME280;23175;-33.706;151.094;2023-12-29T15:47:52;99112.91;;;21.06;40.84
37291;BME280;23175;-33.706;151.094;2023-12-29T15:50:22;99105.83;;;21.14;41.65
37291;BME280;23175;-33.706;151.094;2023-12-29T15:52:54;99102.09;;;21.40;40.59
37291;BME280;23175;-33.706;151.094;2023-12-29T15:55:24;99103.76;;;21.52;41.26
37291;BME280;23175;-33.706;151.094;2023-12-29T15:57:54;99106.97;;;20.95;41.15
37291;BME280;23175;-33.706;151.094;2023-12-29T16:00:25;99111.25;;;21.32;41.05
37291;BME280;23175;-33.706;151.094;2023-12-29T16:02:55;99112.36;;;21.69;41.21
37291;BME280;23175;-33.706;151.094;2023-12-29T16:05:27;99113.57;;;21.32;41.03
37291;BME280;23175;-33.706;151.094;2023-12-29T16:07:57;99109.04;;;20.99;40.99
37291;BME280;23175;-33.706;151.094;2023-12-29T16:10:28;99113.66;;;20.53;42.06
37291;BME280;23175;-33.706;151.094;2023-12-29T16:12:58;99112.21;;;21.47;41.59
37291;BME280;23175;-33.706;151.094;2023-12-29T16:15:29;99103.93;;;19.20;44.03
37291;BME280;23175;-33.706;151.094;2023-12-29T16:17:59;99104.68;;;20.64;42.57
37291;BME280;23175;-33.706;151.094;2023-12-29T16:20:30;99101.71;;;21.40;41.91
37291;BME280;23175;-33.706;151.094;2023-12-29T16:23:00;99100.31;;;20.91;42.26
37291;BME280;23175;-33.706;151.094;2023-12-29T16:25:31;99098.67;;;20.60;42.54
37291;BME280;23175;-33.706;151.094;2023-12-29T16:28:01;99092.71;;;20.94;42.14
37291;BME280;23175;-33.706;151.094;2023-12-29T16:30:33;99094.25;;;21.04;42.11
37291;BME280;23175;-33.706;151.094;2023-12-29T16:33:03;99091.26;;;21.05;41.88
37291;BME280;23175;-33.706;151.094;2023-12-29T16:35:33;99083.42;;;21.06;41.78
37291;BME280;23175;-33.706;151.094;2023-12-29T16:38:06;99072.44;;;21.25;42.17
37291;BME280;23175;-33.706;151.094;2023-12-29T16:40:37;99067.77;;;19.64;43.68
37291;BME280;23175;-33.706;151.094;2023-12-29T16:43:09;99059.25;;;20.49;42.68
37291;BME280;23175;-33.706;151.094;2023-12-29T16:45:41;99048.65;;;20.05;43.49
37291;BME280;23175;-33.706;151.094;2023-12-29T16:48:11;99046.09;;;20.77;42.36
37291;BME280;23175;-33.706;151.094;2023-12-29T16:50:41;99049.60;;;21.21;42.18
37291;BME280;23175;-33.706;151.094;2023-12-29T16:53:12;99051.40;;;20.53;42.24
37291;BME280;23175;-33.706;151.094;2023-12-29T16:55:42;99055.97;;;20.98;41.12
37291;BME280;23175;-33.706;151.094;2023-12-29T16:58:14;99056.24;;;20.50;42.40
37291;BME280;23175;-33.706;151.094;2023-12-29T17:00:45;99056.22;;;20.41;42.64
37291;BME280;23175;-33.706;151.094;2023-12-29T17:03:15;99056.69;;;21.24;42.11
37291;BME280;23175;-33.706;151.094;2023-12-29T17:05:45;99063.13;;;20.97;41.39
37291;BME280;23175;-33.706;151.094;2023-12-29T17:08:15;99072.48;;;20.85;41.78
37291;BME280;23175;-33.706;151.094;2023-12-29T17:10:47;99075.11;;;21.05;41.72
37291;BME280;23175;-33.706;151.094;2023-12-29T17:13:17;99079.29;;;21.20;41.68